Terminal Aerodrome Forecast
Issued by NWS

Home | Current Version | Previous Version | Text Only | Print | Product List | Glossary On
Versions: 1 2 3 4 5 6 7 8 9 10 11 12 13
964
FTUS42 KMHX 221758
TAFISO
TAF
KISO 221758Z 2218/2318 00000KT P6SM SCT050
     FM230900 VRB03KT 3SM BR SCT025
      TEMPO 2309/2312 1SM BR SCT005
     FM231300 14007KT P6SM BKN030
      AMD LTD TO CLD VIS AND WIND=

USA.gov is the U.S. government's official web portal to all federal, state and local government web resources and services.